Colville, WA

1:02 PM PDT on April 25, 2017 (GMT -0700)
Colville Compound | | Change Station

Elev 1634 ft 48.55 °N, 117.91 °W | Updated 6 seconds ago

Mostly Cloudy
Mostly Cloudy
51.4 °F
Feels Like 51.4 °F
N
1.8
Wind Variable Wind from NE
Gusts 2.5 mph

Today
High -- | Low -- °F
--% Chance of Precip.
Yesterday
High -- | Low -- °F
Precip. -- in
Pressure 29.91 in
Visibility 10.0 miles
Clouds Mostly Cloudy 1900 ft
Mostly Cloudy 2700 ft
Dew Point 44 °F
Humidity 74%
Rainfall 0.02 in
Snow Depth Not available.
5:41 AM 7:58 PM
Waning Crescent, 1% visible
METAR KDEW 251953Z AUTO 20006KT 10SM BKN019 BKN027 10/05 A2989 RMK AO2 SLP129 T01000050
Pressure 29.91 in
Visibility 10.0 miles
Clouds Mostly Cloudy 1900 ft
Mostly Cloudy 2700 ft
Dew Point 44 °F
Humidity 74%
Rainfall 0.02 in
Snow Depth Not available.
5:41 AM 7:58 PM
Waning Crescent, 1% visible
METAR KDEW 251953Z AUTO 20006KT 10SM BKN019 BKN027 10/05 A2989 RMK AO2 SLP129 T01000050

Get Severe Weather Alerts

Thanks for signing up!

Be on the lookout for a verification email in your inbox.

You'll start receiving the daily forecast at 8 AM.

×

10-Day Weather Forecast

Almanac

Astronomy

Apr. 25, 2017 Rise Set
Actual Time
Civil Twilight
Nautical Twilight
Astronomical Twilight
Moon
Length of Visible Light
Length of Day
Tomorrow will be .
, % of the Moon is Illuminated

Today's Extremes

State Highs State Lows

Community

WunderPhotos

WunderBlog® & News

Nearby

Air Quality

  Air Quality AQ Index Pollutant
Not available.

Snow Depth

Station Depth Elevation

Earthquake Activity

City Distance Mag. Time & Date
Minimum magnitude displayed is 2.5.

Coastal Water Temperatures

Place Temperature

Stations

Nearby Weather Stations

Station Location Temp. Windchill Dew Point Humidity Wind Precip. Elev Updated Type
                   

Watches & Warnings

There are currently no watches in effect.